createdAt,value
2022-11-06T00:00:44.369Z,54.60
2022-11-06T00:03:11.320Z,90.60
2022-11-06T00:06:00.902Z,61.10
2022-11-06T00:08:35.851Z,59.20
2022-11-06T00:11:09.882Z,69.90
2022-11-06T00:13:36.590Z,70.00
2022-11-06T00:16:05.734Z,70.70
2022-11-06T00:18:33.231Z,53.70
2022-11-06T00:21:06.217Z,46.10
2022-11-06T00:23:32.650Z,53.10
2022-11-06T00:25:59.123Z,59.30
2022-11-06T00:28:25.883Z,43.70
2022-11-06T00:31:04.003Z,41.30
2022-11-06T00:33:30.896Z,43.80
2022-11-06T00:35:57.518Z,52.40
2022-11-06T00:38:24.692Z,51.10
2022-11-06T00:40:51.050Z,50.10
2022-11-06T00:43:17.508Z,43.90
2022-11-06T00:45:43.983Z,102.70
2022-11-06T00:48:11.066Z,78.00
2022-11-06T00:50:37.864Z,56.00
2022-11-06T00:53:04.553Z,56.40
2022-11-06T00:55:31.534Z,82.40
2022-11-06T00:57:58.390Z,97.40
2022-11-06T01:00:25.067Z,65.20
2022-11-06T01:02:51.557Z,68.20
2022-11-06T01:05:18.165Z,58.50
2022-11-06T01:07:44.871Z,53.90
2022-11-06T01:10:11.696Z,57.30
2022-11-06T01:12:38.154Z,50.70
2022-11-06T01:15:05.015Z,35.60
2022-11-06T01:17:31.326Z,35.10
2022-11-06T01:19:57.625Z,39.40
2022-11-06T01:22:24.208Z,33.00
2022-11-06T01:24:50.616Z,31.40
2022-11-06T01:27:32.352Z,29.90
2022-11-06T01:30:01.702Z,36.10
2022-11-06T01:32:28.033Z,65.60
2022-11-06T01:34:54.374Z,70.80
2022-11-06T01:37:21.370Z,40.90
2022-11-06T01:39:49.359Z,53.80
2022-11-06T01:42:20.251Z,60.60
2022-11-06T01:45:20.186Z,142.30
2022-11-06T01:47:47.718Z,54.70
2022-11-06T01:50:16.277Z,100.70
2022-11-06T01:52:45.749Z,89.30
2022-11-06T01:55:19.020Z,152.70
2022-11-06T01:57:47.177Z,76.90
2022-11-06T02:00:14.836Z,47.50
2022-11-06T02:02:41.444Z,68.10
2022-11-06T02:05:08.725Z,85.40
2022-11-06T02:07:36.014Z,90.40
2022-11-06T02:10:03.629Z,41.80
2022-11-06T02:12:55.618Z,55.70
2022-11-06T02:15:42.352Z,43.40
2022-11-06T02:18:35.616Z,60.80
2022-11-06T02:21:23.833Z,35.90
2022-11-06T02:24:06.810Z,46.60
2022-11-06T02:26:45.622Z,46.40
2022-11-06T02:29:21.012Z,48.60
2022-11-06T02:31:51.801Z,47.20
2022-11-06T02:34:21.900Z,43.90
2022-11-06T02:36:57.875Z,61.60
2022-11-06T02:39:28.386Z,59.60
2022-11-06T02:41:58.255Z,63.90
2022-11-06T02:44:27.585Z,51.30
2022-11-06T02:47:02.808Z,43.60
2022-11-06T02:49:39.564Z,35.20
2022-11-06T02:52:12.338Z,32.40
2022-11-06T02:54:45.958Z,87.70
2022-11-06T02:57:15.499Z,44.70
2022-11-06T02:59:52.904Z,59.00
2022-11-06T03:02:32.534Z,36.80
2022-11-06T03:05:07.626Z,61.50
2022-11-06T03:07:37.168Z,60.50
2022-11-06T03:10:06.096Z,47.90
2022-11-06T03:12:44.588Z,47.80
2022-11-06T03:15:33.301Z,38.80
2022-11-06T03:18:09.975Z,35.70
2022-11-06T03:20:41.459Z,27.40
2022-11-06T03:23:49.621Z,30.20
2022-11-06T03:26:29.959Z,32.10
2022-11-06T03:29:14.488Z,30.80
2022-11-06T03:31:51.642Z,33.10
2022-11-06T03:34:27.507Z,32.10
2022-11-06T03:37:05.049Z,61.60
2022-11-06T03:39:37.035Z,83.40
2022-11-06T03:42:11.540Z,43.40
2022-11-06T03:44:43.760Z,41.50
2022-11-06T03:47:38.739Z,64.60
2022-11-06T03:50:16.909Z,92.00
2022-11-06T03:52:50.803Z,92.60
2022-11-06T03:55:22.653Z,44.00
2022-11-06T03:57:56.756Z,54.20
2022-11-06T04:00:23.435Z,79.70
2022-11-06T04:03:03.927Z,85.10
2022-11-06T04:05:53.955Z,59.50
2022-11-06T04:08:41.701Z,35.00
2022-11-06T04:11:30.962Z,55.90
2022-11-06T04:14:00.385Z,52.70
2022-11-06T04:16:33.493Z,53.20
2022-11-06T04:19:00.163Z,32.10
2022-11-06T04:21:32.729Z,24.80
2022-11-06T04:24:33.018Z,24.00
2022-11-06T04:27:08.321Z,48.30
2022-11-06T04:29:49.609Z,38.90
2022-11-06T04:32:32.256Z,32.40
2022-11-06T04:35:07.870Z,51.00
2022-11-06T04:37:58.167Z,42.30
2022-11-06T04:40:28.863Z,52.90
2022-11-06T04:43:17.892Z,28.00
2022-11-06T04:45:48.726Z,32.70
2022-11-06T04:48:17.776Z,40.40
2022-11-06T04:50:49.544Z,35.90
2022-11-06T04:53:17.870Z,51.50
2022-11-06T04:55:47.197Z,37.00
2022-11-06T04:58:14.763Z,41.00
2022-11-06T05:00:45.427Z,38.50
2022-11-06T05:03:12.836Z,33.40
2022-11-06T05:05:39.706Z,35.30
2022-11-06T05:08:11.269Z,34.50
2022-11-06T05:10:37.797Z,31.10
2022-11-06T05:13:04.166Z,27.00
2022-11-06T05:15:30.528Z,25.00
2022-11-06T05:17:57.962Z,24.80
2022-11-06T05:20:24.769Z,26.80
2022-11-06T05:22:57.528Z,29.50
2022-11-06T05:25:24.643Z,31.80
2022-11-06T05:27:51.160Z,30.30
2022-11-06T05:30:17.595Z,28.00
2022-11-06T05:32:44.069Z,26.70
2022-11-06T05:35:10.411Z,31.40
2022-11-06T05:37:37.041Z,29.50
2022-11-06T05:40:05.107Z,33.80
2022-11-06T05:42:31.698Z,27.20
2022-11-06T05:44:58.096Z,31.30
2022-11-06T05:47:24.438Z,43.90
2022-11-06T05:49:53.330Z,51.50
2022-11-06T05:52:19.831Z,51.20
2022-11-06T05:54:46.515Z,30.90
2022-11-06T05:57:12.965Z,33.70
2022-11-06T05:59:39.421Z,42.90
2022-11-06T06:02:05.843Z,38.10
2022-11-06T06:04:32.523Z,37.60
2022-11-06T06:06:59.166Z,32.30
2022-11-06T06:09:25.534Z,32.90
2022-11-06T06:11:53.273Z,38.10
2022-11-06T06:14:20.746Z,42.70
2022-11-06T06:16:47.141Z,51.90
2022-11-06T06:19:14.955Z,51.30
2022-11-06T06:21:41.899Z,49.70
2022-11-06T06:24:08.579Z,61.30
2022-11-06T06:26:34.994Z,63.30
2022-11-06T06:29:01.642Z,52.80
2022-11-06T06:31:28.110Z,41.20
2022-11-06T06:33:54.493Z,50.40
2022-11-06T06:36:20.877Z,53.60
2022-11-06T06:38:47.346Z,53.40
2022-11-06T06:41:16.641Z,47.60
2022-11-06T06:43:43.311Z,42.70
2022-11-06T06:46:10.201Z,44.60
2022-11-06T06:48:36.534Z,44.50
2022-11-06T06:51:04.245Z,49.90
2022-11-06T06:53:30.679Z,43.10
2022-11-06T06:56:01.056Z,44.60
2022-11-06T06:58:31.040Z,58.10
2022-11-06T07:01:02.097Z,50.10
2022-11-06T07:03:29.355Z,44.20
2022-11-06T07:05:59.160Z,37.80
2022-11-06T07:08:26.728Z,41.80
2022-11-06T07:11:01.714Z,48.00
2022-11-06T07:13:35.204Z,53.80
2022-11-06T07:16:04.612Z,54.90
2022-11-06T07:18:32.131Z,45.30
2022-11-06T07:20:58.686Z,46.00
2022-11-06T07:23:27.330Z,35.50
2022-11-06T07:25:54.367Z,34.70
2022-11-06T07:28:21.104Z,34.70
2022-11-06T07:30:50.044Z,37.80
2022-11-06T07:33:16.475Z,37.30
2022-11-06T07:35:44.396Z,34.30
2022-11-06T07:38:13.963Z,31.70
2022-11-06T07:40:40.815Z,27.40
2022-11-06T07:43:09.682Z,27.90
2022-11-06T07:45:38.886Z,27.80
2022-11-06T07:48:07.862Z,31.70
2022-11-06T07:50:34.403Z,28.90
2022-11-06T07:53:03.920Z,28.10
2022-11-06T07:55:31.148Z,24.70
2022-11-06T07:57:58.910Z,30.40
2022-11-06T08:00:26.135Z,28.40
2022-11-06T08:02:53.202Z,27.70
2022-11-06T08:05:20.366Z,30.20
2022-11-06T08:07:46.933Z,29.30
2022-11-06T08:10:13.461Z,33.50
2022-11-06T08:12:40.099Z,35.30
2022-11-06T08:15:07.128Z,29.90
2022-11-06T08:17:34.245Z,33.20
2022-11-06T08:20:01.278Z,33.00
2022-11-06T08:22:28.051Z,40.00
2022-11-06T08:24:54.590Z,27.60
2022-11-06T08:27:21.227Z,29.90
2022-11-06T08:29:47.703Z,32.40
2022-11-06T08:32:14.790Z,30.40
2022-11-06T08:34:41.786Z,20.30
2022-11-06T08:37:19.094Z,22.50
2022-11-06T08:39:48.530Z,30.90
2022-11-06T08:42:15.503Z,34.50
2022-11-06T08:44:42.256Z,21.90
2022-11-06T08:47:09.269Z,19.70
2022-11-06T08:49:35.743Z,20.30
2022-11-06T08:52:02.295Z,20.40
2022-11-06T08:54:28.992Z,24.90
2022-11-06T08:56:56.985Z,19.90
2022-11-06T08:59:23.842Z,25.70
2022-11-06T09:01:50.752Z,16.30
2022-11-06T09:04:18.240Z,19.50
2022-11-06T09:06:45.105Z,21.90
2022-11-06T09:09:14.942Z,18.30
2022-11-06T09:11:42.723Z,22.60
2022-11-06T09:14:09.620Z,22.90
2022-11-06T09:16:36.448Z,21.00
2022-11-06T09:19:03.189Z,23.00
2022-11-06T09:21:30.612Z,23.20
2022-11-06T09:24:03.709Z,20.70
2022-11-06T09:26:32.528Z,18.70
2022-11-06T09:29:01.992Z,23.50
2022-11-06T09:31:29.539Z,20.10
2022-11-06T09:33:56.674Z,22.70
2022-11-06T09:36:24.567Z,20.10
2022-11-06T09:38:52.647Z,21.80
2022-11-06T09:42:00.983Z,31.20
2022-11-06T09:44:27.514Z,27.50
2022-11-06T09:46:57.799Z,20.00
2022-11-06T09:49:49.497Z,19.50
2022-11-06T09:52:22.199Z,22.90
2022-11-06T09:55:01.592Z,21.20
2022-11-06T09:57:37.284Z,18.10
2022-11-06T10:00:06.994Z,22.20
2022-11-06T10:02:48.311Z,20.10
2022-11-06T10:05:31.215Z,18.90
2022-11-06T10:08:03.856Z,18.00
2022-11-06T10:10:41.223Z,18.50
2022-11-06T10:13:32.984Z,16.70
2022-11-06T10:16:10.048Z,18.50
2022-11-06T10:18:45.806Z,20.10
2022-11-06T10:21:24.223Z,17.70
2022-11-06T10:23:59.173Z,19.80
2022-11-06T10:26:45.061Z,15.80
2022-11-06T10:29:30.420Z,14.30
2022-11-06T10:32:24.807Z,15.60
2022-11-06T10:35:08.918Z,16.00
2022-11-06T10:37:47.078Z,16.90
2022-11-06T10:40:18.508Z,17.60
2022-11-06T10:42:54.846Z,14.90
2022-11-06T10:45:23.224Z,19.20
2022-11-06T10:47:58.095Z,16.70
2022-11-06T10:50:34.665Z,16.40
2022-11-06T10:53:20.432Z,17.50
2022-11-06T10:55:50.118Z,16.10
2022-11-06T10:58:20.580Z,16.70
2022-11-06T11:00:50.211Z,16.80
2022-11-06T11:03:26.093Z,15.90
2022-11-06T11:05:55.152Z,14.40
2022-11-06T11:08:42.657Z,15.60
2022-11-06T11:11:22.121Z,14.30
2022-11-06T11:14:12.833Z,13.80
2022-11-06T11:16:44.017Z,15.40
2022-11-06T11:19:38.393Z,17.30
2022-11-06T11:22:18.526Z,14.70
2022-11-06T11:25:08.447Z,16.70
2022-11-06T11:27:42.379Z,13.70
2022-11-06T11:30:25.847Z,13.30
2022-11-06T11:32:56.935Z,15.00
2022-11-06T11:35:30.325Z,17.50
2022-11-06T11:38:11.305Z,12.60
2022-11-06T11:40:41.069Z,16.80
2022-11-06T11:43:27.262Z,14.40
2022-11-06T11:46:07.704Z,15.40
2022-11-06T11:48:52.180Z,17.30
2022-11-06T11:51:28.234Z,15.10
2022-11-06T11:54:05.699Z,13.20
2022-11-06T11:57:02.848Z,14.10
2022-11-06T11:59:26.770Z,12.20
2022-11-06T12:01:56.475Z,12.90
2022-11-06T12:04:31.995Z,12.30
2022-11-06T12:07:02.580Z,13.00
2022-11-06T12:09:34.728Z,13.70
2022-11-06T12:12:01.980Z,16.60
2022-11-06T12:14:37.829Z,11.80
2022-11-06T12:17:12.655Z,12.90
2022-11-06T12:19:44.847Z,12.20
2022-11-06T12:22:44.544Z,15.90
2022-11-06T12:25:27.529Z,14.00
2022-11-06T12:27:59.150Z,15.70
2022-11-06T12:30:26.555Z,13.10
2022-11-06T12:33:12.110Z,12.30
2022-11-06T12:35:48.293Z,13.20
2022-11-06T12:38:32.037Z,14.00
2022-11-06T12:41:23.572Z,14.00
2022-11-06T12:43:51.197Z,11.00
2022-11-06T12:46:18.468Z,13.20
2022-11-06T12:48:53.145Z,9.80
2022-11-06T12:51:41.742Z,11.70
2022-11-06T12:54:37.690Z,11.60
2022-11-06T12:57:32.162Z,13.80
2022-11-06T13:00:20.149Z,11.80
2022-11-06T13:03:24.702Z,12.30
2022-11-06T13:06:09.050Z,12.90
2022-11-06T13:09:05.822Z,13.50
2022-11-06T13:11:50.485Z,10.60
2022-11-06T13:14:31.052Z,14.30
2022-11-06T13:17:13.582Z,13.20
2022-11-06T13:19:55.796Z,10.60
2022-11-06T13:22:52.248Z,11.90
2022-11-06T13:25:27.378Z,12.40
2022-11-06T13:28:03.575Z,12.20
2022-11-06T13:30:31.932Z,10.10
2022-11-06T13:33:26.048Z,11.70
2022-11-06T13:35:54.201Z,9.60
2022-11-06T13:38:29.030Z,12.00
2022-11-06T13:41:03.682Z,12.90
2022-11-06T13:43:38.814Z,12.60
2022-11-06T13:46:14.011Z,13.50
2022-11-06T13:48:53.644Z,13.60
2022-11-06T13:51:32.170Z,11.30
2022-11-06T13:54:39.257Z,15.90
2022-11-06T13:57:24.464Z,15.70
2022-11-06T14:00:11.614Z,12.80
2022-11-06T14:03:00.222Z,17.40
2022-11-06T14:05:26.883Z,19.10
2022-11-06T14:07:57.969Z,18.50
2022-11-06T14:10:36.480Z,19.70
2022-11-06T14:13:05.386Z,21.00
2022-11-06T14:15:41.476Z,22.00
2022-11-06T14:18:13.902Z,21.50
2022-11-06T14:20:41.309Z,25.10
2022-11-06T14:23:29.934Z,22.60
2022-11-06T14:26:02.878Z,20.50
2022-11-06T14:28:43.745Z,20.00
2022-11-06T14:31:31.100Z,21.40
2022-11-06T14:33:59.861Z,17.50
2022-11-06T14:36:33.249Z,19.30
2022-11-06T14:39:01.913Z,20.00
2022-11-06T14:41:35.801Z,20.00
2022-11-06T14:44:16.602Z,16.40
2022-11-06T14:46:55.740Z,17.30
2022-11-06T14:49:42.300Z,16.30
2022-11-06T14:52:14.011Z,18.70
2022-11-06T14:55:05.756Z,16.30
2022-11-06T14:57:48.874Z,22.80
2022-11-06T15:00:37.988Z,18.00
2022-11-06T15:03:17.608Z,18.60
2022-11-06T15:05:49.585Z,18.20
2022-11-06T15:08:46.872Z,24.00
2022-11-06T15:11:30.029Z,28.80
2022-11-06T15:14:03.429Z,44.40
2022-11-06T15:16:37.806Z,58.70
2022-11-06T15:19:39.283Z,51.70
2022-11-06T15:22:20.398Z,31.50
2022-11-06T15:25:19.604Z,28.80
2022-11-06T15:27:54.810Z,16.20
2022-11-06T15:30:22.548Z,15.10
2022-11-06T15:32:54.131Z,19.20
2022-11-06T15:35:29.205Z,18.50
2022-11-06T15:38:05.239Z,18.20
2022-11-06T15:40:35.369Z,16.30
2022-11-06T15:43:07.729Z,17.60
2022-11-06T15:45:35.418Z,15.70
2022-11-06T15:48:06.084Z,15.80
2022-11-06T15:50:38.044Z,16.60
2022-11-06T15:53:12.110Z,19.60
2022-11-06T15:56:09.073Z,15.70
2022-11-06T15:58:39.007Z,16.50
2022-11-06T16:01:08.173Z,19.30
2022-11-06T16:03:53.052Z,27.90
2022-11-06T16:06:22.031Z,17.70
2022-11-06T16:08:51.498Z,19.40
2022-11-06T16:11:20.691Z,19.90
2022-11-06T16:13:49.637Z,22.40
2022-11-06T16:16:50.972Z,19.10
2022-11-06T16:19:33.728Z,21.00
2022-11-06T16:22:08.955Z,21.20
2022-11-06T16:24:48.858Z,24.50
2022-11-06T16:27:18.256Z,29.50
2022-11-06T16:29:56.081Z,53.80
2022-11-06T16:32:30.886Z,63.70
2022-11-06T16:35:00.194Z,60.40
2022-11-06T16:37:29.673Z,65.00
2022-11-06T16:39:59.430Z,68.60
2022-11-06T16:42:40.970Z,70.60
2022-11-06T16:45:22.610Z,75.10
2022-11-06T16:48:29.762Z,82.80
2022-11-06T16:51:04.861Z,109.10
2022-11-06T16:53:49.470Z,114.40
2022-11-06T16:56:24.639Z,108.00
2022-11-06T16:58:57.396Z,101.80
2022-11-06T17:01:27.139Z,86.90
2022-11-06T17:04:02.675Z,90.60
2022-11-06T17:06:36.652Z,75.10
2022-11-06T17:09:27.687Z,90.80
2022-11-06T17:11:56.728Z,93.40
2022-11-06T17:14:24.213Z,102.50
2022-11-06T17:16:57.387Z,105.80
2022-11-06T17:19:25.832Z,106.30
2022-11-06T17:21:55.998Z,109.10
2022-11-06T17:24:38.538Z,99.20
2022-11-06T17:27:08.774Z,88.10
2022-11-06T17:29:36.019Z,80.50
2022-11-06T17:32:04.603Z,77.70
2022-11-06T17:34:33.085Z,73.40
2022-11-06T17:37:01.063Z,66.30
2022-11-06T17:39:30.218Z,82.90
2022-11-06T17:41:57.971Z,74.80
2022-11-06T17:44:25.607Z,63.40
2022-11-06T17:46:52.974Z,69.80
2022-11-06T17:49:20.187Z,57.50
2022-11-06T17:52:00.792Z,54.70
2022-11-06T17:54:31.584Z,69.70
2022-11-06T17:57:01.800Z,78.70
2022-11-06T17:59:29.360Z,104.10
2022-11-06T18:01:57.125Z,127.90
2022-11-06T18:04:27.162Z,145.40
2022-11-06T18:06:55.373Z,135.50
2022-11-06T18:09:24.185Z,120.30
2022-11-06T18:11:53.777Z,107.40
2022-11-06T18:14:22.172Z,92.40
2022-11-06T18:16:52.397Z,106.50
2022-11-06T18:19:22.834Z,96.70
2022-11-06T18:21:52.696Z,154.50
2022-11-06T18:24:20.146Z,144.30
2022-11-06T18:26:46.914Z,156.60
2022-11-06T18:29:14.737Z,148.50
2022-11-06T18:31:42.444Z,131.10
2022-11-06T18:34:19.790Z,128.80
2022-11-06T18:36:50.419Z,105.00
2022-11-06T18:39:18.032Z,83.30
2022-11-06T18:41:45.643Z,75.20
2022-11-06T18:44:17.664Z,81.30
2022-11-06T18:46:46.352Z,70.80
2022-11-06T18:49:14.398Z,75.20
2022-11-06T18:51:42.269Z,79.10
2022-11-06T18:54:15.557Z,81.50
2022-11-06T18:56:42.758Z,77.50
2022-11-06T18:59:15.164Z,76.30
2022-11-06T19:01:42.602Z,74.60
2022-11-06T19:04:10.446Z,72.20
2022-11-06T19:06:38.818Z,74.70
2022-11-06T19:09:09.662Z,70.20
2022-11-06T19:11:36.462Z,77.60
2022-11-06T19:14:03.302Z,66.60
2022-11-06T19:16:29.878Z,74.40
2022-11-06T19:21:31.773Z,73.40
2022-11-06T19:24:03.418Z,69.50
2022-11-06T19:26:32.736Z,68.00
2022-11-06T19:29:02.974Z,76.30
2022-11-06T19:31:30.068Z,61.90
2022-11-06T19:33:59.049Z,66.50
2022-11-06T19:36:27.057Z,68.20
2022-11-06T19:38:54.864Z,54.80
2022-11-06T19:41:21.781Z,41.60
2022-11-06T19:43:48.428Z,44.10
2022-11-06T19:46:24.100Z,40.50
2022-11-06T19:48:53.781Z,40.80
2022-11-06T19:51:20.316Z,36.60
2022-11-06T19:53:51.446Z,34.20
2022-11-06T19:56:18.560Z,40.20
2022-11-06T19:58:48.539Z,37.10
2022-11-06T20:01:16.378Z,35.50
2022-11-06T20:03:44.320Z,36.70
2022-11-06T20:06:12.785Z,35.20
2022-11-06T20:08:40.766Z,38.20
2022-11-06T20:11:13.503Z,34.70
2022-11-06T20:13:43.046Z,37.50
2022-11-06T20:16:18.400Z,34.70
2022-11-06T20:18:53.180Z,38.70
2022-11-06T20:21:21.153Z,33.30
2022-11-06T20:23:48.978Z,31.70
2022-11-06T20:26:16.545Z,33.70
2022-11-06T20:28:46.219Z,38.10
2022-11-06T20:31:15.357Z,31.50
2022-11-06T20:33:43.023Z,34.10
2022-11-06T20:36:15.720Z,33.90
2022-11-06T20:38:45.357Z,35.20
2022-11-06T20:41:14.363Z,38.30
2022-11-06T20:43:45.043Z,34.10
2022-11-06T20:46:14.841Z,32.70
2022-11-06T20:48:44.423Z,34.80
2022-11-06T20:51:19.930Z,31.80
2022-11-06T20:53:47.183Z,34.60
2022-11-06T20:56:18.472Z,29.20
2022-11-06T20:58:49.410Z,33.20
2022-11-06T21:01:20.201Z,34.10
2022-11-06T21:03:48.959Z,38.10
2022-11-06T21:06:17.426Z,42.10
2022-11-06T21:08:44.730Z,36.80
2022-11-06T21:11:16.209Z,37.40
2022-11-06T21:13:45.282Z,40.10
2022-11-06T21:16:18.323Z,49.90
2022-11-06T21:18:46.030Z,51.40
2022-11-06T21:21:15.392Z,53.20
2022-11-06T21:23:42.710Z,71.20
2022-11-06T21:26:14.810Z,65.00
2022-11-06T21:28:43.389Z,113.20
2022-11-06T21:31:12.551Z,122.00
2022-11-06T21:33:40.731Z,95.50
2022-11-06T21:36:10.591Z,86.10
2022-11-06T21:38:37.729Z,81.80
2022-11-06T21:41:10.384Z,82.70
2022-11-06T21:43:37.439Z,77.80
2022-11-06T21:46:06.242Z,59.60
2022-11-06T21:48:45.932Z,50.30
2022-11-06T21:51:20.453Z,50.90
2022-11-06T21:54:06.524Z,51.90
2022-11-06T21:56:34.357Z,46.90
2022-11-06T21:59:02.930Z,49.10
2022-11-06T22:01:30.192Z,55.40
2022-11-06T22:03:57.512Z,65.80
2022-11-06T22:06:25.846Z,73.00
2022-11-06T22:08:55.108Z,79.80
2022-11-06T22:11:24.414Z,90.00
2022-11-06T22:13:52.356Z,90.70
2022-11-06T22:16:25.515Z,88.40
2022-11-06T22:18:52.211Z,82.60
2022-11-06T22:21:24.712Z,88.70
2022-11-06T22:23:53.350Z,88.40
2022-11-06T22:26:28.777Z,86.60
2022-11-06T22:29:01.268Z,85.80
2022-11-06T22:31:28.913Z,75.10
2022-11-06T22:33:55.965Z,60.00
2022-11-06T22:36:23.778Z,72.50
2022-11-06T22:38:50.452Z,77.00
2022-11-06T22:41:20.052Z,76.10
2022-11-06T22:43:47.283Z,77.10
2022-11-06T22:46:17.299Z,77.70
2022-11-06T22:48:44.762Z,80.90
2022-11-06T22:51:20.044Z,84.00
2022-11-06T22:53:46.869Z,67.20
2022-11-06T22:56:13.528Z,60.90
2022-11-06T22:58:40.691Z,49.10
2022-11-06T23:01:09.320Z,53.30
2022-11-06T23:03:36.730Z,52.70
2022-11-06T23:06:06.460Z,48.90
2022-11-06T23:08:34.229Z,48.30
2022-11-06T23:11:07.519Z,52.20
2022-11-06T23:13:35.306Z,49.10
2022-11-06T23:16:07.970Z,43.90
2022-11-06T23:18:34.929Z,42.90
2022-11-06T23:21:02.080Z,46.20
2022-11-06T23:23:28.540Z,44.90
2022-11-06T23:25:57.850Z,40.70
2022-11-06T23:28:24.485Z,43.00
2022-11-06T23:30:50.856Z,45.50
2022-11-06T23:33:17.934Z,52.90
2022-11-06T23:35:44.499Z,86.50
2022-11-06T23:38:10.997Z,168.70
2022-11-06T23:40:37.532Z,184.20
2022-11-06T23:43:04.083Z,89.90
2022-11-06T23:45:49.955Z,66.70
2022-11-06T23:48:16.954Z,49.40
2022-11-06T23:50:46.239Z,45.00
2022-11-06T23:53:16.578Z,44.20
2022-11-06T23:55:43.295Z,46.00
2022-11-06T23:58:10.194Z,46.30
